Detall de PIREP

Printer-friendly versionPDF version

[2008/09/06 16:19:00]
Flight IATA:CT1006
Pilot Number:026
Company ICAO:CAT
Aircraft Type:F70/A
PAX:79
Departing Airport: LFMP
Destination Airport: LEAL
Alternate Airport:LEVC
Online: VATSIM
Route:BGR UN975 BCN UM985 VLC
Flight Level:FL290
No Slew and time accel
No pause
Crash detect
Detect pilot in Cockpit between each 30 and 45 minutes
16:19 Zero fuel Weight: 75290 Lbs, Fuel Weight: 8498 Lbs
16:19 VATSIM:LFMP 061600Z 30010KT 9999 -RA FEW026 OVC056 20/14 Q1012 TEMPO 32015G25KT
16:19 VATSIM:LEAL 061600Z 19008KT 130V240 9999 FEW020 29/15 Q1010 NOSIG
16:19 VOICE CATALONIAN / ALMOGAVERS ROUTE
16:26 Parking Brakes off
16:31 Take-off
16:31 Take off Weight: 83417 Lbs
16:31 Wind: 302º @ 010 Knots Heading: 326º
16:31 POS N42º 44´ 56´´ E002º 51´ 58´´
16:31 Flaps:2 at 158 Knots
16:31 Gear Up: 160 Knots
16:33 Flaps:1 at 224 Knots
16:34 Flaps:0 at 216 Knots
16:46 Wind:332º@
013 Knots Heading: 229º Ground Speed: 382 Knots Altitude 27070 ft
16:48 TOC
16:48 Fuel Weight: 6074 Lb
17:01 Wind:011º@013 Knots Heading: 228º Ground Speed: 450 Knots Altitude 28950 ft
17:12 TOD
17:12 Fuel Weight: 4146 Lb
17:16 Wind:319º@036 Knots Heading: 231º Ground Speed: 391 Knots Altitude 23940 ft
17:30 Gear Down: 154 Knots
17:31 Wind:210º@016 Knots Heading: 107º Ground Speed: 163 Knots Altitude 3979 ft
17:32 Flaps:1 at 144 Knots
17:32 Flaps:2 at 143 Knots
17:33 Flaps:3 at 177 Knots
17:33 TouchDown:Rate -190 ft/min Speed: 144 Knots
17:33 Flaps:0 at 33 Knots
17:33 VATSIM:LEAL 061730Z VRB02KT 9999 FEW020 SCT090 28/17 Q1010 NOSIG
17:33 Land
17:33 Wind:225º@009 Knots
17:33 Heading: 099º
17:33 Flight Duration: 01:02
17:33 Landing Weight: 78742 Lbs
17:33 POS N38º 16´ 58´´ W000º 33´ 49´´
17:37 Parking brakes on
17:37 Block to Block Duration: 01:11
17:37
Final Fuel: 3322 Lbls
17:37 Spent Fuel: 5176 Lbls
17:37 Flight Length: 378 NM
17:37 TOD Land Length: 106 NM

Exportar CSV

Powered by Drupal - Modified by Danger4k